This is the latest recevied weather packets stored in our database for station/object KV4OP. If no packets are shown the sender has not sent any weather packets the latest 10 day(s).
| Time | Temp. | Humidity | Pressure | Rain* | Wind** | Luminosity | Snow |
|---|---|---|---|---|---|---|---|
| 1777742427 | 30.56° C | 61% | 1010.9 hPa | 0 mm | - | - | - |
| 1777742252 | 31.11° C | 61% | 1011.1 hPa | 0 mm | - | - | - |
| 1777742170 | 30.56° C | 62% | 1010.9 hPa | 0 mm | - | - | - |
| 1777741968 | 31.11° C | 61% | 1011.1 hPa | 0 mm | - | - | - |
| 1777741859 | 30.56° C | 63% | 1010.9 hPa | 0 mm | - | - | - |
| 1777741658 | 31.11° C | 61% | 1011.2 hPa | 0 mm | - | - | - |
| 1777741528 | 30.56° C | 62% | 1011.1 hPa | 0 mm | - | - | - |
| 1777741352 | 31.11° C | 62% | 1011.3 hPa | 0 mm | - | - | - |
| 1777741221 | 30.56° C | 62% | 1011 hPa | 0 mm | - | - | - |
| 1777741049 | 31.11° C | 62% | 1011.2 hPa | 0 mm | - | - | - |
| 1777740915 | 30.56° C | 63% | 1011 hPa | 0 mm | - | - | - |
| 1777740746 | 30.56° C | 63% | 1011.2 hPa | 0 mm | - | - | - |
| 1777740632 | 30.56° C | 63% | 1011.1 hPa | 0 mm | - | - | - |
| 1777740460 | 31.11° C | 62% | 1011.2 hPa | 0 mm | - | - | - |
| 1777740321 | 30.56° C | 62% | 1011.1 hPa | 0 mm | - | - | - |
| 1777740152 | 30.56° C | 64% | 1011.3 hPa | 0 mm | - | - | - |
| 1777740016 | 30.56° C | 65% | 1011.3 hPa | 0 mm | - | - | - |
| 1777739868 | 30.56° C | 65% | 1011.5 hPa | 0 mm | - | - | - |
| 1777739706 | 29.44° C | 65% | 1011.1 hPa | 0 mm | - | - | - |
| 1777739561 | 30° C | 65% | 1011.5 hPa | 0 mm | - | - | - |
| 1777739436 | 29.44° C | 65% | 1011.4 hPa | 0 mm | - | - | - |
| 1777739254 | 30° C | 65% | 1011.6 hPa | 0 mm | - | - | - |
| 1777739172 | 29.44° C | 65% | 1011.4 hPa | 0 mm | - | - | - |
| 1777738958 | 30° C | 64% | 1011.3 hPa | 0 mm | - | - | - |
| 1777738844 | 30° C | 64% | 1011.2 hPa | 0 mm | - | - | - |
* Rain latest hour (hover to see other rain measurements)
** Current wind speed in m/s (hover to see current wind gust speed)